sensor_id;sensor_type;location;lat;lon;timestamp;P1;durP1;ratioP1;P2;durP2;ratioP2
37593;SDS011;23441;50.856;6.076;2023-05-10T00:01:55;41.50;;;21.48;;
37593;SDS011;23441;50.856;6.076;2023-05-10T00:04:21;38.10;;;19.42;;
37593;SDS011;23441;50.856;6.076;2023-05-10T00:06:46;42.90;;;20.80;;
37593;SDS011;23441;50.856;6.076;2023-05-10T00:09:12;36.13;;;18.27;;
37593;SDS011;23441;50.856;6.076;2023-05-10T00:11:38;34.30;;;18.10;;
37593;SDS011;23441;50.856;6.076;2023-05-10T00:14:04;31.10;;;15.95;;
37593;SDS011;23441;50.856;6.076;2023-05-10T00:16:30;31.23;;;16.52;;
37593;SDS011;23441;50.856;6.076;2023-05-10T00:18:55;29.48;;;16.33;;
37593;SDS011;23441;50.856;6.076;2023-05-10T00:21:21;28.50;;;16.25;;
37593;SDS011;23441;50.856;6.076;2023-05-10T00:23:46;33.22;;;17.92;;
37593;SDS011;23441;50.856;6.076;2023-05-10T00:26:12;31.10;;;17.80;;
37593;SDS011;23441;50.856;6.076;2023-05-10T00:28:38;32.60;;;17.20;;
37593;SDS011;23441;50.856;6.076;2023-05-10T00:31:03;42.10;;;20.05;;
37593;SDS011;23441;50.856;6.076;2023-05-10T00:33:29;36.03;;;19.17;;
37593;SDS011;23441;50.856;6.076;2023-05-10T00:35:54;40.88;;;20.38;;
37593;SDS011;23441;50.856;6.076;2023-05-10T00:38:20;39.85;;;21.00;;
37593;SDS011;23441;50.856;6.076;2023-05-10T00:40:46;40.30;;;21.38;;
37593;SDS011;23441;50.856;6.076;2023-05-10T00:43:11;38.17;;;20.67;;
37593;SDS011;23441;50.856;6.076;2023-05-10T00:45:37;45.15;;;23.90;;
37593;SDS011;23441;50.856;6.076;2023-05-10T00:48:04;44.92;;;23.15;;
37593;SDS011;23441;50.856;6.076;2023-05-10T00:50:30;41.35;;;23.50;;
37593;SDS011;23441;50.856;6.076;2023-05-10T00:52:58;39.00;;;23.00;;
37593;SDS011;23441;50.856;6.076;2023-05-10T00:55:25;46.80;;;23.23;;
37593;SDS011;23441;50.856;6.076;2023-05-10T00:57:51;41.60;;;21.88;;
37593;SDS011;23441;50.856;6.076;2023-05-10T01:00:18;37.78;;;20.88;;
37593;SDS011;23441;50.856;6.076;2023-05-10T01:02:44;36.15;;;21.00;;
37593;SDS011;23441;50.856;6.076;2023-05-10T01:05:11;32.95;;;18.48;;
37593;SDS011;23441;50.856;6.076;2023-05-10T01:07:37;35.47;;;18.75;;
37593;SDS011;23441;50.856;6.076;2023-05-10T01:10:03;33.63;;;19.08;;
37593;SDS011;23441;50.856;6.076;2023-05-10T01:12:29;34.75;;;18.35;;
37593;SDS011;23441;50.856;6.076;2023-05-10T01:14:55;33.53;;;18.95;;
37593;SDS011;23441;50.856;6.076;2023-05-10T01:17:21;32.03;;;18.08;;
37593;SDS011;23441;50.856;6.076;2023-05-10T01:19:47;32.00;;;18.88;;
37593;SDS011;23441;50.856;6.076;2023-05-10T01:39:20;32.75;;;19.02;;
37593;SDS011;23441;50.856;6.076;2023-05-10T01:47:53;33.05;;;19.27;;
37593;SDS011;23441;50.856;6.076;2023-05-10T01:50:21;29.65;;;19.10;;
37593;SDS011;23441;50.856;6.076;2023-05-10T01:52:50;27.25;;;16.65;;
37593;SDS011;23441;50.856;6.076;2023-05-10T01:55:23;31.35;;;17.42;;
37593;SDS011;23441;50.856;6.076;2023-05-10T01:57:53;27.45;;;16.35;;
37593;SDS011;23441;50.856;6.076;2023-05-10T02:00:33;31.88;;;18.10;;
37593;SDS011;23441;50.856;6.076;2023-05-10T02:03:00;26.38;;;17.52;;
37593;SDS011;23441;50.856;6.076;2023-05-10T02:05:32;31.08;;;18.35;;
37593;SDS011;23441;50.856;6.076;2023-05-10T02:08:00;28.65;;;19.13;;
37593;SDS011;23441;50.856;6.076;2023-05-10T02:10:28;31.13;;;19.35;;
37593;SDS011;23441;50.856;6.076;2023-05-10T02:12:55;32.53;;;19.98;;
37593;SDS011;23441;50.856;6.076;2023-05-10T02:15:25;31.75;;;19.52;;
37593;SDS011;23441;50.856;6.076;2023-05-10T02:17:52;29.77;;;19.15;;
37593;SDS011;23441;50.856;6.076;2023-05-10T02:20:20;27.67;;;18.40;;
37593;SDS011;23441;50.856;6.076;2023-05-10T02:22:49;30.60;;;18.75;;
37593;SDS011;23441;50.856;6.076;2023-05-10T02:25:17;30.70;;;18.90;;
37593;SDS011;23441;50.856;6.076;2023-05-10T02:27:46;25.88;;;17.33;;
37593;SDS011;23441;50.856;6.076;2023-05-10T02:30:13;30.67;;;18.73;;
37593;SDS011;23441;50.856;6.076;2023-05-10T02:32:39;31.58;;;18.38;;
37593;SDS011;23441;50.856;6.076;2023-05-10T02:35:06;31.77;;;18.63;;
37593;SDS011;23441;50.856;6.076;2023-05-10T02:37:33;33.05;;;19.17;;
37593;SDS011;23441;50.856;6.076;2023-05-10T02:40:00;35.55;;;19.83;;
37593;SDS011;23441;50.856;6.076;2023-05-10T02:42:28;35.80;;;20.35;;
37593;SDS011;23441;50.856;6.076;2023-05-10T02:45:05;34.40;;;21.13;;
37593;SDS011;23441;50.856;6.076;2023-05-10T02:47:36;39.88;;;21.45;;
37593;SDS011;23441;50.856;6.076;2023-05-10T02:50:02;36.03;;;21.05;;
37593;SDS011;23441;50.856;6.076;2023-05-10T02:52:32;42.28;;;21.35;;
37593;SDS011;23441;50.856;6.076;2023-05-10T02:55:09;41.72;;;21.40;;
37593;SDS011;23441;50.856;6.076;2023-05-10T02:57:46;34.85;;;20.00;;
37593;SDS011;23441;50.856;6.076;2023-05-10T03:00:16;36.38;;;20.30;;
37593;SDS011;23441;50.856;6.076;2023-05-10T03:02:42;36.58;;;20.83;;
37593;SDS011;23441;50.856;6.076;2023-05-10T03:05:08;47.83;;;22.48;;
37593;SDS011;23441;50.856;6.076;2023-05-10T03:07:33;40.65;;;20.83;;
37593;SDS011;23441;50.856;6.076;2023-05-10T03:09:59;42.42;;;21.52;;
37593;SDS011;23441;50.856;6.076;2023-05-10T03:20:10;43.78;;;20.52;;
37593;SDS011;23441;50.856;6.076;2023-05-10T03:22:43;45.40;;;21.45;;
37593;SDS011;23441;50.856;6.076;2023-05-10T03:25:12;39.67;;;18.48;;
37593;SDS011;23441;50.856;6.076;2023-05-10T03:27:39;42.63;;;19.92;;
37593;SDS011;23441;50.856;6.076;2023-05-10T03:30:08;41.80;;;20.25;;
37593;SDS011;23441;50.856;6.076;2023-05-10T03:32:35;40.38;;;19.65;;
37593;SDS011;23441;50.856;6.076;2023-05-10T03:35:05;42.05;;;18.90;;
37593;SDS011;23441;50.856;6.076;2023-05-10T03:37:32;43.53;;;19.15;;
37593;SDS011;23441;50.856;6.076;2023-05-10T03:39:58;37.53;;;18.20;;
37593;SDS011;23441;50.856;6.076;2023-05-10T03:42:23;44.20;;;18.42;;
37593;SDS011;23441;50.856;6.076;2023-05-10T03:44:49;35.20;;;16.80;;
37593;SDS011;23441;50.856;6.076;2023-05-10T03:47:14;37.53;;;17.17;;
37593;SDS011;23441;50.856;6.076;2023-05-10T03:49:40;38.53;;;16.75;;
37593;SDS011;23441;50.856;6.076;2023-05-10T03:52:06;38.95;;;18.20;;
37593;SDS011;23441;50.856;6.076;2023-05-10T03:54:31;38.80;;;15.73;;
37593;SDS011;23441;50.856;6.076;2023-05-10T03:56:57;32.78;;;16.42;;
37593;SDS011;23441;50.856;6.076;2023-05-10T03:59:22;35.53;;;15.55;;
37593;SDS011;23441;50.856;6.076;2023-05-10T04:01:48;34.58;;;15.80;;
37593;SDS011;23441;50.856;6.076;2023-05-10T04:04:14;35.15;;;15.98;;
37593;SDS011;23441;50.856;6.076;2023-05-10T04:06:39;29.35;;;15.07;;
37593;SDS011;23441;50.856;6.076;2023-05-10T04:09:05;30.20;;;14.60;;
37593;SDS011;23441;50.856;6.076;2023-05-10T04:11:31;28.15;;;14.25;;
37593;SDS011;23441;50.856;6.076;2023-05-10T04:13:57;28.15;;;14.27;;
37593;SDS011;23441;50.856;6.076;2023-05-10T04:16:22;35.33;;;15.95;;
37593;SDS011;23441;50.856;6.076;2023-05-10T04:18:48;34.42;;;16.00;;
37593;SDS011;23441;50.856;6.076;2023-05-10T04:21:14;30.45;;;15.48;;
37593;SDS011;23441;50.856;6.076;2023-05-10T04:23:40;33.55;;;15.48;;
37593;SDS011;23441;50.856;6.076;2023-05-10T04:26:06;30.27;;;16.35;;
37593;SDS011;23441;50.856;6.076;2023-05-10T04:28:31;30.02;;;15.45;;
37593;SDS011;23441;50.856;6.076;2023-05-10T04:31:01;33.88;;;16.45;;
37593;SDS011;23441;50.856;6.076;2023-05-10T04:33:28;32.47;;;16.70;;
37593;SDS011;23441;50.856;6.076;2023-05-10T04:35:53;30.80;;;16.42;;
37593;SDS011;23441;50.856;6.076;2023-05-10T04:38:19;37.92;;;17.27;;
37593;SDS011;23441;50.856;6.076;2023-05-10T04:40:45;33.28;;;18.00;;
37593;SDS011;23441;50.856;6.076;2023-05-10T04:43:10;34.80;;;18.23;;
37593;SDS011;23441;50.856;6.076;2023-05-10T04:45:36;45.78;;;19.33;;
37593;SDS011;23441;50.856;6.076;2023-05-10T04:48:01;36.85;;;19.40;;
37593;SDS011;23441;50.856;6.076;2023-05-10T04:50:27;38.88;;;19.65;;
37593;SDS011;23441;50.856;6.076;2023-05-10T04:52:53;40.10;;;20.25;;
37593;SDS011;23441;50.856;6.076;2023-05-10T04:55:18;42.08;;;19.35;;
37593;SDS011;23441;50.856;6.076;2023-05-10T04:57:44;43.83;;;20.92;;
37593;SDS011;23441;50.856;6.076;2023-05-10T05:00:10;40.75;;;19.52;;
37593;SDS011;23441;50.856;6.076;2023-05-10T05:02:36;43.65;;;19.35;;
37593;SDS011;23441;50.856;6.076;2023-05-10T05:05:01;39.70;;;20.90;;
37593;SDS011;23441;50.856;6.076;2023-05-10T05:07:27;40.40;;;21.90;;
37593;SDS011;23441;50.856;6.076;2023-05-10T05:09:53;50.58;;;21.63;;
37593;SDS011;23441;50.856;6.076;2023-05-10T05:12:19;39.05;;;19.95;;
37593;SDS011;23441;50.856;6.076;2023-05-10T05:14:44;40.28;;;19.75;;
37593;SDS011;23441;50.856;6.076;2023-05-10T05:17:10;36.20;;;19.52;;
37593;SDS011;23441;50.856;6.076;2023-05-10T05:19:36;51.92;;;21.45;;
37593;SDS011;23441;50.856;6.076;2023-05-10T05:22:01;42.47;;;19.35;;
37593;SDS011;23441;50.856;6.076;2023-05-10T05:24:27;47.38;;;20.33;;
37593;SDS011;23441;50.856;6.076;2023-05-10T05:26:53;38.65;;;19.83;;
37593;SDS011;23441;50.856;6.076;2023-05-10T05:29:18;44.15;;;20.45;;
37593;SDS011;23441;50.856;6.076;2023-05-10T05:31:44;45.42;;;19.80;;
37593;SDS011;23441;50.856;6.076;2023-05-10T05:34:09;38.22;;;20.48;;
37593;SDS011;23441;50.856;6.076;2023-05-10T05:36:38;38.83;;;19.70;;
37593;SDS011;23441;50.856;6.076;2023-05-10T05:39:03;39.08;;;19.40;;
37593;SDS011;23441;50.856;6.076;2023-05-10T05:41:29;46.50;;;19.10;;
37593;SDS011;23441;50.856;6.076;2023-05-10T05:43:54;37.20;;;19.73;;
37593;SDS011;23441;50.856;6.076;2023-05-10T05:46:20;36.38;;;18.55;;
37593;SDS011;23441;50.856;6.076;2023-05-10T05:48:46;40.50;;;18.88;;
37593;SDS011;23441;50.856;6.076;2023-05-10T05:51:11;38.50;;;18.83;;
37593;SDS011;23441;50.856;6.076;2023-05-10T05:53:37;39.38;;;19.10;;
37593;SDS011;23441;50.856;6.076;2023-05-10T05:56:02;30.83;;;17.70;;
37593;SDS011;23441;50.856;6.076;2023-05-10T05:58:29;33.97;;;17.05;;
37593;SDS011;23441;50.856;6.076;2023-05-10T06:00:54;29.63;;;16.52;;
37593;SDS011;23441;50.856;6.076;2023-05-10T06:03:20;28.60;;;15.43;;
37593;SDS011;23441;50.856;6.076;2023-05-10T06:05:45;27.90;;;14.73;;
37593;SDS011;23441;50.856;6.076;2023-05-10T06:08:11;23.98;;;14.20;;
37593;SDS011;23441;50.856;6.076;2023-05-10T06:10:37;19.65;;;12.32;;
37593;SDS011;23441;50.856;6.076;2023-05-10T06:13:02;16.65;;;8.90;;
37593;SDS011;23441;50.856;6.076;2023-05-10T06:15:28;16.25;;;8.70;;
37593;SDS011;23441;50.856;6.076;2023-05-10T06:17:54;16.52;;;9.25;;
37593;SDS011;23441;50.856;6.076;2023-05-10T06:20:20;18.95;;;9.88;;
37593;SDS011;23441;50.856;6.076;2023-05-10T06:22:45;14.07;;;9.18;;
37593;SDS011;23441;50.856;6.076;2023-05-10T06:25:11;20.10;;;10.27;;
37593;SDS011;23441;50.856;6.076;2023-05-10T06:27:37;19.38;;;9.68;;
37593;SDS011;23441;50.856;6.076;2023-05-10T06:30:03;15.77;;;9.60;;
37593;SDS011;23441;50.856;6.076;2023-05-10T06:32:29;18.40;;;10.15;;
37593;SDS011;23441;50.856;6.076;2023-05-10T06:34:55;22.30;;;11.65;;
37593;SDS011;23441;50.856;6.076;2023-05-10T06:37:21;19.67;;;11.02;;
37593;SDS011;23441;50.856;6.076;2023-05-10T06:39:46;19.55;;;11.57;;
37593;SDS011;23441;50.856;6.076;2023-05-10T06:42:12;20.35;;;12.15;;
37593;SDS011;23441;50.856;6.076;2023-05-10T06:44:38;22.70;;;12.73;;
37593;SDS011;23441;50.856;6.076;2023-05-10T06:47:03;20.92;;;12.02;;
37593;SDS011;23441;50.856;6.076;2023-05-10T06:49:29;20.38;;;11.00;;
37593;SDS011;23441;50.856;6.076;2023-05-10T06:51:55;20.13;;;11.70;;
37593;SDS011;23441;50.856;6.076;2023-05-10T06:54:21;20.35;;;12.13;;
37593;SDS011;23441;50.856;6.076;2023-05-10T06:56:46;19.50;;;12.20;;
37593;SDS011;23441;50.856;6.076;2023-05-10T06:59:12;20.90;;;11.85;;
37593;SDS011;23441;50.856;6.076;2023-05-10T07:01:38;21.50;;;11.80;;
37593;SDS011;23441;50.856;6.076;2023-05-10T07:04:04;18.95;;;10.65;;
37593;SDS011;23441;50.856;6.076;2023-05-10T07:06:32;15.82;;;10.30;;
37593;SDS011;23441;50.856;6.076;2023-05-10T07:08:58;17.40;;;9.35;;
37593;SDS011;23441;50.856;6.076;2023-05-10T07:11:24;14.88;;;9.23;;
37593;SDS011;23441;50.856;6.076;2023-05-10T07:13:50;14.50;;;8.95;;
37593;SDS011;23441;50.856;6.076;2023-05-10T07:16:15;18.00;;;9.98;;
37593;SDS011;23441;50.856;6.076;2023-05-10T07:18:41;22.95;;;11.07;;
37593;SDS011;23441;50.856;6.076;2023-05-10T07:21:06;21.67;;;13.10;;
37593;SDS011;23441;50.856;6.076;2023-05-10T07:23:32;25.13;;;13.50;;
37593;SDS011;23441;50.856;6.076;2023-05-10T07:25:58;29.27;;;15.07;;
37593;SDS011;23441;50.856;6.076;2023-05-10T07:28:24;31.55;;;16.30;;
37593;SDS011;23441;50.856;6.076;2023-05-10T07:30:50;36.67;;;16.92;;
37593;SDS011;23441;50.856;6.076;2023-05-10T07:33:17;41.90;;;18.05;;
37593;SDS011;23441;50.856;6.076;2023-05-10T07:35:43;40.42;;;19.25;;
37593;SDS011;23441;50.856;6.076;2023-05-10T07:38:08;40.63;;;18.70;;
37593;SDS011;23441;50.856;6.076;2023-05-10T07:40:35;50.92;;;20.58;;
37593;SDS011;23441;50.856;6.076;2023-05-10T07:43:01;50.67;;;21.92;;
37593;SDS011;23441;50.856;6.076;2023-05-10T07:45:27;52.65;;;22.90;;
37593;SDS011;23441;50.856;6.076;2023-05-10T07:47:53;57.00;;;24.45;;
37593;SDS011;23441;50.856;6.076;2023-05-10T07:50:19;54.85;;;23.95;;
37593;SDS011;23441;50.856;6.076;2023-05-10T07:52:46;56.35;;;22.90;;
37593;SDS011;23441;50.856;6.076;2023-05-10T07:55:11;52.03;;;22.05;;
37593;SDS011;23441;50.856;6.076;2023-05-10T07:57:37;55.25;;;22.67;;
37593;SDS011;23441;50.856;6.076;2023-05-10T08:00:04;51.67;;;22.38;;
37593;SDS011;23441;50.856;6.076;2023-05-10T08:02:30;54.35;;;21.65;;
37593;SDS011;23441;50.856;6.076;2023-05-10T08:04:56;50.95;;;22.17;;
37593;SDS011;23441;50.856;6.076;2023-05-10T08:07:22;57.97;;;23.48;;
37593;SDS011;23441;50.856;6.076;2023-05-10T08:09:49;53.63;;;22.30;;
37593;SDS011;23441;50.856;6.076;2023-05-10T08:12:15;52.55;;;21.50;;
37593;SDS011;23441;50.856;6.076;2023-05-10T08:14:41;57.45;;;22.15;;
37593;SDS011;23441;50.856;6.076;2023-05-10T08:17:06;56.13;;;22.63;;
37593;SDS011;23441;50.856;6.076;2023-05-10T08:19:32;57.72;;;23.52;;
37593;SDS011;23441;50.856;6.076;2023-05-10T08:21:57;57.50;;;23.05;;
37593;SDS011;23441;50.856;6.076;2023-05-10T08:24:23;59.30;;;24.08;;
37593;SDS011;23441;50.856;6.076;2023-05-10T08:26:49;51.35;;;21.52;;
37593;SDS011;23441;50.856;6.076;2023-05-10T08:29:14;49.03;;;18.75;;
37593;SDS011;23441;50.856;6.076;2023-05-10T08:31:40;39.38;;;16.13;;
37593;SDS011;23441;50.856;6.076;2023-05-10T08:34:06;34.72;;;15.30;;
37593;SDS011;23441;50.856;6.076;2023-05-10T08:36:32;36.72;;;15.13;;
37593;SDS011;23441;50.856;6.076;2023-05-10T08:38:58;24.08;;;11.45;;
37593;SDS011;23441;50.856;6.076;2023-05-10T08:41:23;17.52;;;9.70;;
37593;SDS011;23441;50.856;6.076;2023-05-10T08:43:51;19.88;;;9.95;;
37593;SDS011;23441;50.856;6.076;2023-05-10T08:46:18;19.02;;;10.10;;
37593;SDS011;23441;50.856;6.076;2023-05-10T08:48:45;18.05;;;9.30;;
37593;SDS011;23441;50.856;6.076;2023-05-10T08:51:18;17.17;;;9.27;;
37593;SDS011;23441;50.856;6.076;2023-05-10T08:53:47;11.15;;;7.90;;
37593;SDS011;23441;50.856;6.076;2023-05-10T08:56:12;11.48;;;7.75;;
37593;SDS011;23441;50.856;6.076;2023-05-10T08:58:40;13.10;;;7.85;;
37593;SDS011;23441;50.856;6.076;2023-05-10T09:01:06;10.20;;;7.20;;
37593;SDS011;23441;50.856;6.076;2023-05-10T09:03:33;12.15;;;7.63;;
37593;SDS011;23441;50.856;6.076;2023-05-10T09:06:00;12.27;;;7.70;;
37593;SDS011;23441;50.856;6.076;2023-05-10T09:08:26;13.20;;;7.55;;
37593;SDS011;23441;50.856;6.076;2023-05-10T09:10:52;15.90;;;8.60;;
37593;SDS011;23441;50.856;6.076;2023-05-10T09:13:20;11.73;;;7.10;;
37593;SDS011;23441;50.856;6.076;2023-05-10T09:15:47;10.75;;;6.97;;
37593;SDS011;23441;50.856;6.076;2023-05-10T09:18:13;9.85;;;7.00;;
37593;SDS011;23441;50.856;6.076;2023-05-10T09:20:39;10.65;;;6.88;;
37593;SDS011;23441;50.856;6.076;2023-05-10T09:23:05;9.40;;;6.80;;
37593;SDS011;23441;50.856;6.076;2023-05-10T09:25:31;9.00;;;6.38;;
37593;SDS011;23441;50.856;6.076;2023-05-10T09:27:58;10.60;;;7.35;;
37593;SDS011;23441;50.856;6.076;2023-05-10T09:30:25;10.68;;;6.47;;
37593;SDS011;23441;50.856;6.076;2023-05-10T09:32:53;11.68;;;6.88;;
37593;SDS011;23441;50.856;6.076;2023-05-10T09:35:20;8.80;;;6.30;;
37593;SDS011;23441;50.856;6.076;2023-05-10T09:37:48;8.52;;;5.57;;
37593;SDS011;23441;50.856;6.076;2023-05-10T09:40:19;9.13;;;6.05;;
37593;SDS011;23441;50.856;6.076;2023-05-10T09:45:23;7.30;;;6.15;;
37593;SDS011;23441;50.856;6.076;2023-05-10T09:47:51;9.05;;;6.10;;
37593;SDS011;23441;50.856;6.076;2023-05-10T09:50:17;7.53;;;5.63;;
37593;SDS011;23441;50.856;6.076;2023-05-10T09:55:37;7.20;;;5.60;;
37593;SDS011;23441;50.856;6.076;2023-05-10T09:58:04;6.40;;;5.40;;
37593;SDS011;23441;50.856;6.076;2023-05-10T10:00:44;10.63;;;6.05;;
37593;SDS011;23441;50.856;6.076;2023-05-10T10:03:19;6.35;;;5.65;;
37593;SDS011;23441;50.856;6.076;2023-05-10T10:05:46;5.95;;;4.97;;
37593;SDS011;23441;50.856;6.076;2023-05-10T10:08:13;5.72;;;4.90;;
37593;SDS011;23441;50.856;6.076;2023-05-10T10:10:41;5.88;;;5.28;;
37593;SDS011;23441;50.856;6.076;2023-05-10T10:13:09;5.15;;;4.60;;
37593;SDS011;23441;50.856;6.076;2023-05-10T10:15:34;7.97;;;5.00;;
37593;SDS011;23441;50.856;6.076;2023-05-10T10:18:00;6.70;;;5.13;;
37593;SDS011;23441;50.856;6.076;2023-05-10T10:20:28;4.78;;;4.28;;
37593;SDS011;23441;50.856;6.076;2023-05-10T10:22:54;7.45;;;4.85;;
37593;SDS011;23441;50.856;6.076;2023-05-10T10:25:20;4.50;;;3.63;;
37593;SDS011;23441;50.856;6.076;2023-05-10T10:36:19;5.10;;;4.30;;
37593;SDS011;23441;50.856;6.076;2023-05-10T10:41:20;5.78;;;4.20;;
37593;SDS011;23441;50.856;6.076;2023-05-10T10:49:37;4.32;;;3.53;;
37593;SDS011;23441;50.856;6.076;2023-05-10T10:52:21;4.18;;;3.55;;
37593;SDS011;23441;50.856;6.076;2023-05-10T10:57:27;4.20;;;3.70;;
37593;SDS011;23441;50.856;6.076;2023-05-10T11:02:47;5.55;;;3.97;;
37593;SDS011;23441;50.856;6.076;2023-05-10T11:13:28;3.95;;;3.55;;
37593;SDS011;23441;50.856;6.076;2023-05-10T11:16:19;3.10;;;2.80;;
37593;SDS011;23441;50.856;6.076;2023-05-10T11:18:58;3.25;;;2.72;;
37593;SDS011;23441;50.856;6.076;2023-05-10T11:21:26;2.85;;;2.60;;
37593;SDS011;23441;50.856;6.076;2023-05-10T11:23:53;3.28;;;2.95;;
37593;SDS011;23441;50.856;6.076;2023-05-10T11:26:30;3.20;;;2.90;;
37593;SDS011;23441;50.856;6.076;2023-05-10T11:28:57;4.55;;;3.30;;
37593;SDS011;23441;50.856;6.076;2023-05-10T11:31:24;3.15;;;2.85;;
37593;SDS011;23441;50.856;6.076;2023-05-10T11:33:55;3.33;;;3.03;;
37593;SDS011;23441;50.856;6.076;2023-05-10T11:36:25;3.22;;;2.92;;
37593;SDS011;23441;50.856;6.076;2023-05-10T11:38:52;4.97;;;3.67;;
37593;SDS011;23441;50.856;6.076;2023-05-10T11:41:19;6.90;;;4.75;;
37593;SDS011;23441;50.856;6.076;2023-05-10T11:43:51;6.80;;;4.55;;
37593;SDS011;23441;50.856;6.076;2023-05-10T11:46:21;7.65;;;5.35;;
37593;SDS011;23441;50.856;6.076;2023-05-10T11:48:49;11.30;;;6.00;;
37593;SDS011;23441;50.856;6.076;2023-05-10T11:51:19;8.23;;;6.20;;
37593;SDS011;23441;50.856;6.076;2023-05-10T11:53:49;9.38;;;6.22;;
37593;SDS011;23441;50.856;6.076;2023-05-10T11:56:17;8.68;;;6.60;;
37593;SDS011;23441;50.856;6.076;2023-05-10T11:58:43;9.88;;;6.43;;
37593;SDS011;23441;50.856;6.076;2023-05-10T12:01:08;10.00;;;6.53;;
37593;SDS011;23441;50.856;6.076;2023-05-10T12:03:35;10.40;;;6.38;;
37593;SDS011;23441;50.856;6.076;2023-05-10T12:06:02;11.05;;;7.03;;
37593;SDS011;23441;50.856;6.076;2023-05-10T12:08:28;10.38;;;6.13;;
37593;SDS011;23441;50.856;6.076;2023-05-10T12:11:08;8.70;;;6.47;;
37593;SDS011;23441;50.856;6.076;2023-05-10T12:13:38;12.40;;;5.88;;
37593;SDS011;23441;50.856;6.076;2023-05-10T12:18:40;7.88;;;6.20;;
37593;SDS011;23441;50.856;6.076;2023-05-10T12:21:07;10.45;;;6.30;;
37593;SDS011;23441;50.856;6.076;2023-05-10T12:23:35;7.90;;;5.47;;
37593;SDS011;23441;50.856;6.076;2023-05-10T12:26:04;8.55;;;5.43;;
37593;SDS011;23441;50.856;6.076;2023-05-10T12:28:31;7.30;;;5.18;;
37593;SDS011;23441;50.856;6.076;2023-05-10T12:30:58;10.43;;;6.05;;
37593;SDS011;23441;50.856;6.076;2023-05-10T12:33:24;8.73;;;6.30;;
37593;SDS011;23441;50.856;6.076;2023-05-10T12:35:53;7.63;;;5.85;;
37593;SDS011;23441;50.856;6.076;2023-05-10T12:38:24;8.35;;;5.70;;
37593;SDS011;23441;50.856;6.076;2023-05-10T12:40:51;9.32;;;5.53;;
37593;SDS011;23441;50.856;6.076;2023-05-10T12:43:17;5.93;;;5.00;;
37593;SDS011;23441;50.856;6.076;2023-05-10T12:45:42;8.65;;;5.78;;
37593;SDS011;23441;50.856;6.076;2023-05-10T12:48:12;8.38;;;5.47;;
37593;SDS011;23441;50.856;6.076;2023-05-10T12:50:38;9.43;;;5.47;;
37593;SDS011;23441;50.856;6.076;2023-05-10T12:53:04;6.55;;;4.80;;
37593;SDS011;23441;50.856;6.076;2023-05-10T12:55:29;6.25;;;4.82;;
37593;SDS011;23441;50.856;6.076;2023-05-10T12:57:55;6.75;;;5.57;;
37593;SDS011;23441;50.856;6.076;2023-05-10T13:00:21;9.40;;;5.18;;
37593;SDS011;23441;50.856;6.076;2023-05-10T13:02:47;8.52;;;5.93;;
37593;SDS011;23441;50.856;6.076;2023-05-10T13:05:13;8.50;;;6.10;;
37593;SDS011;23441;50.856;6.076;2023-05-10T13:07:38;8.70;;;5.43;;
37593;SDS011;23441;50.856;6.076;2023-05-10T13:10:05;6.47;;;5.00;;
37593;SDS011;23441;50.856;6.076;2023-05-10T13:12:31;8.25;;;5.10;;
37593;SDS011;23441;50.856;6.076;2023-05-10T13:14:57;7.80;;;5.38;;
37593;SDS011;23441;50.856;6.076;2023-05-10T13:17:22;8.25;;;5.35;;
37593;SDS011;23441;50.856;6.076;2023-05-10T13:19:48;8.15;;;5.68;;
37593;SDS011;23441;50.856;6.076;2023-05-10T13:22:13;7.70;;;5.68;;
37593;SDS011;23441;50.856;6.076;2023-05-10T13:24:39;9.38;;;5.38;;
37593;SDS011;23441;50.856;6.076;2023-05-10T13:27:05;6.95;;;5.18;;
37593;SDS011;23441;50.856;6.076;2023-05-10T13:29:30;8.80;;;5.50;;
37593;SDS011;23441;50.856;6.076;2023-05-10T13:31:56;7.10;;;5.03;;
37593;SDS011;23441;50.856;6.076;2023-05-10T13:34:22;7.50;;;5.00;;
37593;SDS011;23441;50.856;6.076;2023-05-10T13:36:49;6.28;;;4.95;;
37593;SDS011;23441;50.856;6.076;2023-05-10T13:39:14;6.68;;;4.93;;
37593;SDS011;23441;50.856;6.076;2023-05-10T13:41:40;5.95;;;4.80;;
37593;SDS011;23441;50.856;6.076;2023-05-10T13:44:06;5.85;;;4.15;;
37593;SDS011;23441;50.856;6.076;2023-05-10T13:46:32;5.05;;;3.90;;
37593;SDS011;23441;50.856;6.076;2023-05-10T13:48:57;5.65;;;4.00;;
37593;SDS011;23441;50.856;6.076;2023-05-10T13:51:23;6.45;;;4.78;;
37593;SDS011;23441;50.856;6.076;2023-05-10T13:53:49;5.25;;;4.03;;
37593;SDS011;23441;50.856;6.076;2023-05-10T13:56:14;6.28;;;4.80;;
37593;SDS011;23441;50.856;6.076;2023-05-10T13:58:40;8.23;;;4.88;;
37593;SDS011;23441;50.856;6.076;2023-05-10T14:01:06;8.20;;;4.40;;
37593;SDS011;23441;50.856;6.076;2023-05-10T14:03:32;4.65;;;3.80;;
37593;SDS011;23441;50.856;6.076;2023-05-10T14:05:58;5.25;;;4.05;;
37593;SDS011;23441;50.856;6.076;2023-05-10T14:08:23;4.97;;;3.75;;
37593;SDS011;23441;50.856;6.076;2023-05-10T14:10:49;4.57;;;3.30;;
37593;SDS011;23441;50.856;6.076;2023-05-10T14:13:15;5.32;;;3.25;;
37593;SDS011;23441;50.856;6.076;2023-05-10T14:15:41;4.38;;;2.72;;
37593;SDS011;23441;50.856;6.076;2023-05-10T14:18:06;3.47;;;2.60;;
37593;SDS011;23441;50.856;6.076;2023-05-10T14:20:32;3.70;;;2.63;;
37593;SDS011;23441;50.856;6.076;2023-05-10T14:22:59;4.28;;;2.80;;
37593;SDS011;23441;50.856;6.076;2023-05-10T14:25:25;3.45;;;2.80;;
37593;SDS011;23441;50.856;6.076;2023-05-10T14:27:50;5.80;;;2.80;;
37593;SDS011;23441;50.856;6.076;2023-05-10T14:30:19;2.88;;;2.30;;
37593;SDS011;23441;50.856;6.076;2023-05-10T14:32:44;3.70;;;2.50;;
37593;SDS011;23441;50.856;6.076;2023-05-10T14:35:10;3.22;;;2.58;;
37593;SDS011;23441;50.856;6.076;2023-05-10T14:37:36;3.85;;;2.65;;
37593;SDS011;23441;50.856;6.076;2023-05-10T14:40:02;2.97;;;2.40;;
37593;SDS011;23441;50.856;6.076;2023-05-10T14:42:29;2.95;;;2.00;;
37593;SDS011;23441;50.856;6.076;2023-05-10T14:44:56;2.72;;;2.03;;
37593;SDS011;23441;50.856;6.076;2023-05-10T14:47:21;4.15;;;2.72;;
37593;SDS011;23441;50.856;6.076;2023-05-10T14:49:47;3.25;;;2.53;;
37593;SDS011;23441;50.856;6.076;2023-05-10T14:52:13;3.45;;;2.33;;
37593;SDS011;23441;50.856;6.076;2023-05-10T14:54:39;3.28;;;2.30;;
37593;SDS011;23441;50.856;6.076;2023-05-10T14:57:06;3.03;;;2.33;;
37593;SDS011;23441;50.856;6.076;2023-05-10T14:59:32;3.17;;;2.35;;
37593;SDS011;23441;50.856;6.076;2023-05-10T15:01:57;2.55;;;2.35;;
37593;SDS011;23441;50.856;6.076;2023-05-10T15:04:24;5.30;;;2.83;;
37593;SDS011;23441;50.856;6.076;2023-05-10T15:06:49;4.18;;;3.28;;
37593;SDS011;23441;50.856;6.076;2023-05-10T15:09:15;5.15;;;3.92;;
37593;SDS011;23441;50.856;6.076;2023-05-10T15:11:41;5.80;;;3.72;;
37593;SDS011;23441;50.856;6.076;2023-05-10T15:14:07;5.38;;;3.90;;
37593;SDS011;23441;50.856;6.076;2023-05-10T15:16:32;6.22;;;3.63;;
37593;SDS011;23441;50.856;6.076;2023-05-10T15:18:58;8.65;;;3.60;;
37593;SDS011;23441;50.856;6.076;2023-05-10T15:21:24;5.90;;;3.88;;
37593;SDS011;23441;50.856;6.076;2023-05-10T15:23:50;6.45;;;3.63;;
37593;SDS011;23441;50.856;6.076;2023-05-10T15:26:16;4.20;;;3.30;;
37593;SDS011;23441;50.856;6.076;2023-05-10T15:28:41;4.80;;;2.80;;
37593;SDS011;23441;50.856;6.076;2023-05-10T15:31:07;3.95;;;2.67;;
37593;SDS011;23441;50.856;6.076;2023-05-10T15:33:33;3.63;;;3.08;;
37593;SDS011;23441;50.856;6.076;2023-05-10T15:35:58;4.32;;;3.15;;
37593;SDS011;23441;50.856;6.076;2023-05-10T15:38:24;4.10;;;3.22;;
37593;SDS011;23441;50.856;6.076;2023-05-10T15:40:50;3.83;;;2.95;;